createdAt,value
2022-10-07T00:00:01.408Z,948.05
2022-10-07T00:01:01.899Z,948.08
2022-10-07T00:02:02.585Z,948.07
2022-10-07T00:03:02.882Z,948.05
2022-10-07T00:04:03.872Z,948.04
2022-10-07T00:05:04.243Z,948.04
2022-10-07T00:06:04.922Z,948.04
2022-10-07T00:07:05.231Z,948.08
2022-10-07T00:08:06.233Z,948.06
2022-10-07T00:09:06.634Z,948.05
2022-10-07T00:10:07.645Z,948.1
2022-10-07T00:11:08.256Z,948.03
2022-10-07T00:12:08.856Z,948
2022-10-07T00:13:09.182Z,948.02
2022-10-07T00:14:09.480Z,948.04
2022-10-07T00:15:10.193Z,947.97
2022-10-07T00:16:10.933Z,947.98
2022-10-07T00:17:11.043Z,947.95
2022-10-07T00:18:11.354Z,948.01
2022-10-07T00:19:12.346Z,947.93
2022-10-07T00:20:13.275Z,947.95
2022-10-07T00:21:14.292Z,947.97
2022-10-07T00:22:14.607Z,947.96
2022-10-07T00:23:15.302Z,947.98
2022-10-07T00:24:15.645Z,947.97
2022-10-07T00:25:15.966Z,947.98
2022-10-07T00:26:16.899Z,947.92
2022-10-07T00:27:17.246Z,947.96
2022-10-07T00:28:18.471Z,947.99
2022-10-07T00:29:19.285Z,947.98
2022-10-07T00:30:19.627Z,947.92
2022-10-07T00:31:20.683Z,947.96
2022-10-07T00:32:20.774Z,947.94
2022-10-07T00:33:21.089Z,947.92
2022-10-07T00:34:21.690Z,947.89
2022-10-07T00:35:22.043Z,947.88
2022-10-07T00:36:22.473Z,947.91
2022-10-07T00:37:22.986Z,947.84
2022-10-07T00:38:24.016Z,947.83
2022-10-07T00:39:24.217Z,947.84
2022-10-07T00:40:24.537Z,947.85
2022-10-07T00:41:25.158Z,947.89
2022-10-07T00:42:25.371Z,947.83
2022-10-07T00:43:26.308Z,947.85
2022-10-07T00:44:26.560Z,947.82
2022-10-07T00:45:27.579Z,947.79
2022-10-07T00:46:27.728Z,947.8
2022-10-07T00:47:27.941Z,947.76
2022-10-07T00:48:28.567Z,947.79
2022-10-07T00:49:28.883Z,947.75
2022-10-07T00:50:29.925Z,947.77
2022-10-07T00:51:30.818Z,947.75
2022-10-07T00:52:31.434Z,947.75
2022-10-07T00:53:32.351Z,947.73
2022-10-07T00:54:33.273Z,947.72
2022-10-07T00:55:33.509Z,947.7
2022-10-07T00:56:34.411Z,947.69
2022-10-07T00:57:34.605Z,947.67
2022-10-07T00:58:34.799Z,947.64
2022-10-07T00:59:35.133Z,947.64
2022-10-07T01:00:35.847Z,947.64
2022-10-07T01:01:36.816Z,947.64
2022-10-07T01:02:37.289Z,947.61
2022-10-07T01:03:38.232Z,947.62
2022-10-07T01:04:38.422Z,947.63
2022-10-07T01:05:38.638Z,947.62
2022-10-07T01:06:39.555Z,947.58
2022-10-07T01:07:39.773Z,947.59
2022-10-07T01:08:40.027Z,947.57
2022-10-07T01:09:40.369Z,947.6
2022-10-07T01:10:40.703Z,947.56
2022-10-07T01:11:40.923Z,947.56
2022-10-07T01:12:41.841Z,947.59
2022-10-07T01:13:42.069Z,947.56
2022-10-07T01:14:43.003Z,947.57
2022-10-07T01:15:43.196Z,947.58
2022-10-07T01:16:43.452Z,947.55
2022-10-07T01:17:44.000Z,947.56
2022-10-07T01:18:44.448Z,947.53
2022-10-07T01:19:44.675Z,947.51
2022-10-07T01:20:44.975Z,947.49
2022-10-07T01:21:45.166Z,947.49
2022-10-07T01:22:45.351Z,947.48
2022-10-07T01:23:45.982Z,947.44
2022-10-07T01:24:46.898Z,947.47
2022-10-07T01:25:47.539Z,947.45
2022-10-07T01:26:48.440Z,947.41
2022-10-07T01:27:49.057Z,947.41
2022-10-07T01:28:49.269Z,947.39
2022-10-07T01:29:49.614Z,947.41
2022-10-07T01:30:50.484Z,947.38
2022-10-07T01:31:50.752Z,947.34
2022-10-07T01:32:51.658Z,947.34
2022-10-07T01:33:52.563Z,947.31
2022-10-07T01:34:52.769Z,947.29
2022-10-07T01:35:53.386Z,947.31
2022-10-07T01:36:54.442Z,947.32
2022-10-07T01:37:55.352Z,947.3
2022-10-07T01:38:56.267Z,947.33
2022-10-07T01:39:57.160Z,947.31
2022-10-07T01:40:57.306Z,947.36
2022-10-07T01:41:57.530Z,947.34
2022-10-07T01:42:58.152Z,947.32
2022-10-07T01:43:58.650Z,947.32
2022-10-07T01:44:59.556Z,947.34
2022-10-07T01:45:59.939Z,947.34
2022-10-07T01:47:00.190Z,947.37
2022-10-07T01:48:01.120Z,947.34
2022-10-07T01:49:01.787Z,947.29
2022-10-07T01:50:02.004Z,947.29
2022-10-07T01:51:02.174Z,947.26
2022-10-07T01:52:02.364Z,947.3
2022-10-07T01:53:02.953Z,947.25
2022-10-07T01:54:03.573Z,947.24
2022-10-07T01:55:04.485Z,947.25
2022-10-07T01:56:04.716Z,947.23
2022-10-07T01:57:05.715Z,947.24
2022-10-07T01:58:06.626Z,947.22
2022-10-07T01:59:07.561Z,947.18
2022-10-07T02:00:08.458Z,947.21
2022-10-07T02:01:09.536Z,947.21
2022-10-07T02:02:09.788Z,947.19
2022-10-07T02:03:10.412Z,947.18
2022-10-07T02:04:10.617Z,947.21
2022-10-07T02:05:11.561Z,947.15
2022-10-07T02:06:11.774Z,947.19
2022-10-07T02:07:12.667Z,947.16
2022-10-07T02:08:12.878Z,947.16
2022-10-07T02:09:13.071Z,947.15
2022-10-07T02:10:13.387Z,947.15
2022-10-07T02:11:13.714Z,947.17
2022-10-07T02:12:14.635Z,947.13
2022-10-07T02:13:15.531Z,947.16
2022-10-07T02:14:15.730Z,947.15
2022-10-07T02:15:16.661Z,947.08
2022-10-07T02:16:17.809Z,947.11
2022-10-07T02:17:17.910Z,947.11
2022-10-07T02:18:18.117Z,947.1
2022-10-07T02:19:18.612Z,947.12
2022-10-07T02:20:19.226Z,947.13
2022-10-07T02:21:19.549Z,947.08
2022-10-07T02:22:20.140Z,947.11
2022-10-07T02:23:20.329Z,947.08
2022-10-07T02:24:20.523Z,947.11
2022-10-07T02:26:20.881Z,947.1
2022-10-07T02:27:21.484Z,947.08
2022-10-07T02:28:22.153Z,947.11
2022-10-07T02:29:23.269Z,947.07
2022-10-07T02:30:23.874Z,947.07
2022-10-07T02:31:24.073Z,947.05
2022-10-07T02:32:24.776Z,947.08
2022-10-07T02:33:25.702Z,947.09
2022-10-07T02:34:26.320Z,947.05
2022-10-07T02:35:26.814Z,947.06
2022-10-07T02:36:27.785Z,947.07
2022-10-07T02:37:28.701Z,947
2022-10-07T02:38:29.744Z,946.99
2022-10-07T02:39:30.684Z,946.98
2022-10-07T02:40:31.597Z,946.97
2022-10-07T02:41:32.378Z,946.94
2022-10-07T02:42:32.898Z,946.93
2022-10-07T02:43:33.389Z,946.88
2022-10-07T02:44:33.627Z,946.91
2022-10-07T02:45:34.119Z,946.91
2022-10-07T02:46:34.356Z,946.9
2022-10-07T02:47:35.228Z,946.93
2022-10-07T02:48:35.617Z,946.92
2022-10-07T02:49:36.527Z,946.94
2022-10-07T02:50:37.458Z,946.91
2022-10-07T02:51:38.500Z,946.92
2022-10-07T02:52:38.719Z,946.88
2022-10-07T02:53:38.906Z,946.9
2022-10-07T02:54:39.813Z,946.91
2022-10-07T02:55:40.748Z,946.91
2022-10-07T02:56:41.368Z,946.92
2022-10-07T02:57:42.593Z,946.9
2022-10-07T02:58:42.823Z,946.91
2022-10-07T02:59:43.049Z,946.87
2022-10-07T03:00:43.955Z,946.92
2022-10-07T03:01:44.951Z,946.89
2022-10-07T03:02:45.599Z,946.87
2022-10-07T03:03:46.557Z,946.89
2022-10-07T03:04:47.338Z,946.91
2022-10-07T03:05:47.833Z,946.92
2022-10-07T03:06:48.344Z,946.91
2022-10-07T03:07:49.233Z,946.91
2022-10-07T03:08:49.565Z,946.9
2022-10-07T03:09:50.475Z,946.9
2022-10-07T03:10:51.091Z,946.87
2022-10-07T03:11:51.404Z,946.88
2022-10-07T03:12:51.879Z,946.93
2022-10-07T03:13:52.814Z,946.83
2022-10-07T03:14:53.020Z,946.88
2022-10-07T03:15:53.962Z,946.88
2022-10-07T03:16:54.929Z,946.86
2022-10-07T03:17:55.846Z,946.86
2022-10-07T03:18:56.098Z,946.91
2022-10-07T03:19:56.620Z,946.88
2022-10-07T03:20:56.817Z,946.91
2022-10-07T03:21:57.832Z,946.85
2022-10-07T03:22:58.456Z,946.87
2022-10-07T03:23:59.371Z,946.9
2022-10-07T03:25:00.151Z,946.86
2022-10-07T03:26:01.063Z,946.87
2022-10-07T03:27:01.998Z,946.79
2022-10-07T03:28:02.667Z,946.8
2022-10-07T03:29:03.313Z,946.84
2022-10-07T03:30:04.046Z,946.8
2022-10-07T03:31:05.081Z,946.83
2022-10-07T03:32:06.056Z,946.85
2022-10-07T03:33:06.975Z,946.84
2022-10-07T03:34:07.482Z,946.82
2022-10-07T03:35:08.396Z,946.84
2022-10-07T03:36:09.448Z,946.87
2022-10-07T03:37:09.691Z,946.83
2022-10-07T03:38:10.601Z,946.79
2022-10-07T03:39:10.818Z,946.78
2022-10-07T03:40:11.156Z,946.8
2022-10-07T03:41:11.647Z,946.78
2022-10-07T03:42:11.813Z,946.71
2022-10-07T03:43:12.434Z,946.74
2022-10-07T03:44:12.679Z,946.72
2022-10-07T03:45:12.893Z,946.66
2022-10-07T03:46:13.549Z,946.71
2022-10-07T03:47:13.854Z,946.7
2022-10-07T03:48:14.494Z,946.67
2022-10-07T03:49:14.713Z,946.71
2022-10-07T03:50:15.204Z,946.7
2022-10-07T03:51:15.563Z,946.72
2022-10-07T03:52:15.910Z,946.68
2022-10-07T03:53:16.825Z,946.69
2022-10-07T03:54:17.016Z,946.66
2022-10-07T03:55:17.905Z,946.65
2022-10-07T03:56:18.833Z,946.69
2022-10-07T03:57:19.748Z,946.63
2022-10-07T03:58:20.654Z,946.65
2022-10-07T03:59:21.569Z,946.66
2022-10-07T04:00:22.071Z,946.61
2022-10-07T04:01:22.609Z,946.65
2022-10-07T04:02:23.048Z,946.62
2022-10-07T04:03:24.131Z,946.64
2022-10-07T04:04:24.696Z,946.58
2022-10-07T04:05:24.894Z,946.59
2022-10-07T04:06:25.784Z,946.58
2022-10-07T04:07:26.014Z,946.58
2022-10-07T04:08:26.640Z,946.6
2022-10-07T04:09:27.023Z,946.56
2022-10-07T04:10:27.234Z,946.55
2022-10-07T04:11:27.551Z,946.56
2022-10-07T04:12:28.577Z,946.54
2022-10-07T04:13:29.463Z,946.52
2022-10-07T04:14:30.379Z,946.5
2022-10-07T04:15:31.022Z,946.51
2022-10-07T04:16:33.666Z,946.5
2022-10-07T04:17:32.173Z,946.51
2022-10-07T04:18:32.461Z,946.51
2022-10-07T04:19:33.436Z,946.48
2022-10-07T04:20:34.051Z,946.52
2022-10-07T04:21:34.671Z,946.49
2022-10-07T04:22:35.734Z,946.51
2022-10-07T04:23:36.623Z,946.48
2022-10-07T04:24:37.239Z,946.46
2022-10-07T04:25:37.722Z,946.46
2022-10-07T04:26:37.925Z,946.4
2022-10-07T04:27:51.007Z,946.41
2022-10-07T04:28:39.174Z,946.42
2022-10-07T04:29:39.428Z,946.39
2022-10-07T04:30:40.032Z,946.35
2022-10-07T04:31:40.389Z,946.34
2022-10-07T04:32:40.529Z,946.38
2022-10-07T04:33:40.743Z,946.37
2022-10-07T04:34:41.388Z,946.38
2022-10-07T04:35:41.879Z,946.38
2022-10-07T04:36:42.087Z,946.36
2022-10-07T04:37:43.324Z,946.38
2022-10-07T04:38:43.881Z,946.36
2022-10-07T04:39:59.956Z,946.37
2022-10-07T04:40:45.532Z,946.35
2022-10-07T04:41:46.427Z,946.34
2022-10-07T04:42:47.217Z,946.3
2022-10-07T04:43:47.405Z,946.32
2022-10-07T04:44:48.196Z,946.32
2022-10-07T04:45:49.144Z,946.29
2022-10-07T04:46:49.807Z,946.29
2022-10-07T04:47:50.685Z,946.28
2022-10-07T04:48:51.299Z,946.25
2022-10-07T04:49:52.206Z,946.26
2022-10-07T04:50:52.399Z,946.25
2022-10-07T04:51:52.591Z,946.21
2022-10-07T04:52:53.332Z,946.19
2022-10-07T04:53:56.668Z,946.22
2022-10-07T04:54:54.730Z,946.25
2022-10-07T04:55:55.324Z,946.21
2022-10-07T04:56:55.519Z,946.24
2022-10-07T04:57:56.181Z,946.24
2022-10-07T04:58:56.368Z,946.24
2022-10-07T04:59:57.010Z,946.2
2022-10-07T05:00:57.543Z,946.21
2022-10-07T05:01:57.724Z,946.21
2022-10-07T05:02:57.871Z,946.19
2022-10-07T05:03:58.073Z,946.16
2022-10-07T05:04:58.277Z,946.18
2022-10-07T05:06:01.142Z,946.17
2022-10-07T05:06:59.797Z,946.22
2022-10-07T05:08:00.726Z,946.21
2022-10-07T05:09:01.625Z,946.2
2022-10-07T05:10:02.549Z,946.21
2022-10-07T05:11:03.148Z,946.22
2022-10-07T05:12:03.499Z,946.23
2022-10-07T05:13:04.032Z,946.21
2022-10-07T05:14:04.930Z,946.18
2022-10-07T05:15:05.532Z,946.21
2022-10-07T05:16:05.787Z,946.2
2022-10-07T05:17:06.260Z,946.18
2022-10-07T05:18:07.224Z,946.18
2022-10-07T05:19:08.149Z,946.21
2022-10-07T05:20:08.653Z,946.2
2022-10-07T05:21:09.291Z,946.16
2022-10-07T05:22:09.854Z,946.19
2022-10-07T05:23:10.603Z,946.19
2022-10-07T05:24:11.374Z,946.19
2022-10-07T05:25:12.288Z,946.15
2022-10-07T05:26:13.203Z,946.2
2022-10-07T05:27:13.838Z,946.19
2022-10-07T05:28:14.110Z,946.2
2022-10-07T05:29:14.507Z,946.2
2022-10-07T05:30:15.422Z,946.19
2022-10-07T05:31:15.685Z,946.19
2022-10-07T05:32:16.753Z,946.19
2022-10-07T05:33:16.859Z,946.18
2022-10-07T05:34:17.477Z,946.21
2022-10-07T05:35:18.405Z,946.21
2022-10-07T05:36:19.321Z,946.2
2022-10-07T05:37:19.541Z,946.17
2022-10-07T05:38:19.765Z,946.15
2022-10-07T05:39:20.507Z,946.18
2022-10-07T05:40:20.846Z,946.2
2022-10-07T05:41:21.040Z,946.2
2022-10-07T05:42:22.017Z,946.21
2022-10-07T05:43:22.766Z,946.22
2022-10-07T05:44:22.943Z,946.21
2022-10-07T05:45:23.835Z,946.22
2022-10-07T05:46:24.645Z,946.22
2022-10-07T05:47:25.016Z,946.21
2022-10-07T05:48:25.210Z,946.21
2022-10-07T05:49:25.881Z,946.24
2022-10-07T05:50:26.393Z,946.24
2022-10-07T05:51:27.058Z,946.23
2022-10-07T05:52:27.272Z,946.23
2022-10-07T05:53:27.891Z,946.23
2022-10-07T05:54:28.789Z,946.24
2022-10-07T05:55:29.126Z,946.22
2022-10-07T05:56:29.713Z,946.22
2022-10-07T05:57:29.935Z,946.23
2022-10-07T05:58:30.922Z,946.2
2022-10-07T05:59:31.827Z,946.19
2022-10-07T06:00:32.026Z,946.19
2022-10-07T06:01:32.600Z,946.19
2022-10-07T06:02:33.479Z,946.2
2022-10-07T06:03:34.253Z,946.17
2022-10-07T06:04:34.741Z,946.19
2022-10-07T06:05:35.652Z,946.15
2022-10-07T06:06:36.581Z,946.17
2022-10-07T06:07:37.489Z,946.2
2022-10-07T06:08:38.267Z,946.17
2022-10-07T06:09:38.744Z,946.17
2022-10-07T06:10:38.935Z,946.18
2022-10-07T06:11:39.851Z,946.19
2022-10-07T06:12:40.775Z,946.19
2022-10-07T06:13:41.811Z,946.19
2022-10-07T06:14:42.712Z,946.2
2022-10-07T06:15:43.353Z,946.19
2022-10-07T06:16:44.501Z,946.2
2022-10-07T06:17:44.922Z,946.2
2022-10-07T06:18:44.776Z,946.26
2022-10-07T06:19:44.995Z,946.24
2022-10-07T06:20:46.027Z,946.25
2022-10-07T06:21:46.243Z,946.26
2022-10-07T06:22:47.161Z,946.25
2022-10-07T06:23:48.218Z,946.27
2022-10-07T06:24:48.430Z,946.23
2022-10-07T06:25:49.020Z,946.26
2022-10-07T06:26:49.214Z,946.29
2022-10-07T06:27:53.987Z,946.26
2022-10-07T06:28:50.716Z,946.27
2022-10-07T06:29:50.929Z,946.29
2022-10-07T06:30:51.885Z,946.29
2022-10-07T06:31:52.482Z,946.26
2022-10-07T06:32:52.692Z,946.33
2022-10-07T06:33:53.335Z,946.29
2022-10-07T06:34:53.552Z,946.3
2022-10-07T06:35:54.479Z,946.33
2022-10-07T06:36:54.767Z,946.32
2022-10-07T06:37:55.706Z,946.33
2022-10-07T06:38:55.974Z,946.33
2022-10-07T06:39:59.433Z,946.33
2022-10-07T06:40:56.778Z,946.28
2022-10-07T06:41:57.847Z,946.3
2022-10-07T06:42:58.046Z,946.31
2022-10-07T06:43:58.643Z,946.27
2022-10-07T06:44:58.844Z,946.27
2022-10-07T06:45:59.552Z,946.27
2022-10-07T06:46:59.845Z,946.25
2022-10-07T06:48:00.119Z,946.28
2022-10-07T06:49:00.316Z,946.28
2022-10-07T06:50:01.300Z,946.29
2022-10-07T06:51:02.309Z,946.25
2022-10-07T06:52:02.509Z,946.26
2022-10-07T06:53:03.147Z,946.28
2022-10-07T06:54:03.791Z,946.23
2022-10-07T06:55:04.279Z,946.24
2022-10-07T06:56:05.172Z,946.24
2022-10-07T06:57:15.594Z,946.28
2022-10-07T06:58:10.669Z,946.28
2022-10-07T06:59:06.400Z,946.27
2022-10-07T07:00:07.026Z,946.27
2022-10-07T07:01:07.397Z,946.3
2022-10-07T07:02:08.333Z,946.26
2022-10-07T07:03:08.601Z,946.27
2022-10-07T07:04:09.178Z,946.27
2022-10-07T07:05:10.106Z,946.26
2022-10-07T07:06:11.111Z,946.28
2022-10-07T07:07:11.639Z,946.27
2022-10-07T07:08:11.961Z,946.29
2022-10-07T07:09:12.912Z,946.32
2022-10-07T07:10:13.817Z,946.31
2022-10-07T07:11:14.035Z,946.31
2022-10-07T07:12:14.267Z,946.28
2022-10-07T07:13:15.183Z,946.26
2022-10-07T07:14:15.531Z,946.23
2022-10-07T07:15:16.452Z,946.25
2022-10-07T07:16:16.689Z,946.23
2022-10-07T07:17:17.178Z,946.24
2022-10-07T07:18:17.462Z,946.21
2022-10-07T07:19:17.675Z,946.25
2022-10-07T07:20:18.298Z,946.25
2022-10-07T07:21:19.279Z,946.28
2022-10-07T07:22:20.334Z,946.25
2022-10-07T07:23:21.252Z,946.26
2022-10-07T07:24:22.279Z,946.3
2022-10-07T07:25:22.497Z,946.3
2022-10-07T07:26:23.136Z,946.27
2022-10-07T07:27:24.051Z,946.3
2022-10-07T07:28:24.710Z,946.27
2022-10-07T07:29:24.933Z,946.33
2022-10-07T07:30:25.914Z,946.32
2022-10-07T07:31:26.893Z,946.32
2022-10-07T07:32:27.550Z,946.34
2022-10-07T07:33:28.170Z,946.32
2022-10-07T07:34:29.166Z,946.34
2022-10-07T07:35:29.523Z,946.34
2022-10-07T07:36:30.031Z,946.34
2022-10-07T07:37:30.243Z,946.28
2022-10-07T07:38:30.349Z,946.31
2022-10-07T07:39:31.294Z,946.28
2022-10-07T07:40:31.794Z,946.31
2022-10-07T07:41:32.407Z,946.28
2022-10-07T07:42:33.331Z,946.3
2022-10-07T07:43:33.957Z,946.29
2022-10-07T07:44:34.987Z,946.34
2022-10-07T07:45:35.027Z,946.33
2022-10-07T07:46:35.876Z,946.32
2022-10-07T07:47:36.981Z,946.31
2022-10-07T07:48:37.169Z,946.3
2022-10-07T07:49:37.366Z,946.32
2022-10-07T07:50:37.562Z,946.3
2022-10-07T07:51:37.775Z,946.27
2022-10-07T07:52:38.682Z,946.28
2022-10-07T07:53:39.277Z,946.31
2022-10-07T07:54:40.299Z,946.27
2022-10-07T07:55:40.575Z,946.24
2022-10-07T07:56:41.498Z,946.22
2022-10-07T07:57:42.274Z,946.2
2022-10-07T07:58:42.902Z,946.22
2022-10-07T07:59:43.136Z,946.16
2022-10-07T08:00:43.769Z,946.17
2022-10-07T08:01:44.824Z,946.21
2022-10-07T08:02:45.115Z,946.2
2022-10-07T08:03:45.924Z,946.19
2022-10-07T08:04:46.925Z,946.17
2022-10-07T08:05:47.609Z,946.19
2022-10-07T08:06:48.532Z,946.18
2022-10-07T08:07:49.017Z,946.19
2022-10-07T08:08:49.066Z,946.22
2022-10-07T08:09:50.018Z,946.18
2022-10-07T08:10:51.985Z,946.19
2022-10-07T08:11:51.302Z,946.2
2022-10-07T08:12:52.227Z,946.21
2022-10-07T08:13:52.919Z,946.24
2022-10-07T08:14:53.992Z,946.22
2022-10-07T08:15:54.999Z,946.2
2022-10-07T08:16:55.283Z,946.18
2022-10-07T08:17:56.253Z,946.18
2022-10-07T08:18:57.171Z,946.18
2022-10-07T08:19:57.439Z,946.14
2022-10-07T08:20:58.421Z,946.13
2022-10-07T08:21:58.627Z,946.17
2022-10-07T08:22:59.553Z,946.14
2022-10-07T08:24:00.447Z,946.16
2022-10-07T08:25:01.498Z,946.12
2022-10-07T08:26:02.121Z,946.13
2022-10-07T08:27:03.046Z,946.16
2022-10-07T08:28:03.334Z,946.13
2022-10-07T08:29:03.958Z,946.14
2022-10-07T08:30:04.532Z,946.09
2022-10-07T08:31:05.541Z,946.09
2022-10-07T08:32:06.316Z,946.07
2022-10-07T08:33:07.071Z,946.07
2022-10-07T08:34:07.995Z,946.04
2022-10-07T08:35:08.316Z,946.03
2022-10-07T08:36:09.248Z,946.02
2022-10-07T08:37:10.161Z,946.02
2022-10-07T08:38:13.764Z,946.04
2022-10-07T08:39:11.359Z,946.01
2022-10-07T08:40:11.879Z,945.99
2022-10-07T08:41:12.804Z,945.95
2022-10-07T08:42:13.011Z,945.96
2022-10-07T08:43:13.979Z,945.99
2022-10-07T08:44:16.850Z,945.95
2022-10-07T08:45:14.836Z,945.93
2022-10-07T08:46:15.511Z,945.95
2022-10-07T08:47:16.392Z,945.93
2022-10-07T08:48:17.147Z,945.94
2022-10-07T08:49:17.382Z,945.95
2022-10-07T08:50:19.666Z,945.95
2022-10-07T08:51:18.160Z,945.94
2022-10-07T08:52:18.798Z,945.95
2022-10-07T08:53:19.716Z,945.94
2022-10-07T08:54:19.942Z,945.96
2022-10-07T08:55:20.703Z,945.95
2022-10-07T08:56:21.042Z,945.92
2022-10-07T08:57:21.705Z,945.92
2022-10-07T08:58:21.924Z,945.96
2022-10-07T08:59:22.874Z,945.92
2022-10-07T09:00:23.529Z,945.94
2022-10-07T09:01:24.041Z,945.93
2022-10-07T09:02:24.621Z,945.9
2022-10-07T09:03:25.456Z,945.93
2022-10-07T09:04:26.105Z,945.89
2022-10-07T09:05:26.402Z,945.91
2022-10-07T09:06:26.600Z,945.89
2022-10-07T09:07:27.216Z,945.87
2022-10-07T09:08:28.190Z,945.86
2022-10-07T09:09:28.392Z,945.8
2022-10-07T09:10:28.617Z,945.84
2022-10-07T09:11:29.549Z,945.82
2022-10-07T09:12:30.153Z,945.8
2022-10-07T09:13:30.495Z,945.81
2022-10-07T09:14:30.695Z,945.78
2022-10-07T09:15:31.498Z,945.79
2022-10-07T09:16:31.958Z,945.82
2022-10-07T09:17:35.132Z,945.79
2022-10-07T09:18:33.080Z,945.76
2022-10-07T09:19:34.023Z,945.75
2022-10-07T09:20:34.226Z,945.76
2022-10-07T09:21:34.573Z,945.74
2022-10-07T09:22:35.489Z,945.72
2022-10-07T09:23:36.409Z,945.71
2022-10-07T09:24:36.647Z,945.73
2022-10-07T09:25:37.409Z,945.69
2022-10-07T09:26:38.340Z,945.67
2022-10-07T09:27:38.542Z,945.62
2022-10-07T09:28:39.501Z,945.61
2022-10-07T09:29:39.618Z,945.65
2022-10-07T09:30:40.261Z,945.62
2022-10-07T09:31:40.457Z,945.62
2022-10-07T09:32:41.099Z,945.57
2022-10-07T09:33:41.836Z,945.61
2022-10-07T09:34:42.522Z,945.56
2022-10-07T09:35:42.846Z,945.56
2022-10-07T09:36:43.668Z,945.51
2022-10-07T09:37:44.592Z,945.5
2022-10-07T09:38:44.686Z,945.5
2022-10-07T09:39:45.305Z,945.49
2022-10-07T09:40:46.223Z,945.51
2022-10-07T09:41:47.142Z,945.49
2022-10-07T09:42:48.039Z,945.47
2022-10-07T09:43:48.386Z,945.5
2022-10-07T09:44:49.289Z,945.49
2022-10-07T09:45:49.804Z,945.5
2022-10-07T09:46:50.140Z,945.48
2022-10-07T09:47:50.393Z,945.49
2022-10-07T09:48:51.322Z,945.49
2022-10-07T09:49:52.368Z,945.48
2022-10-07T09:50:52.564Z,945.5
2022-10-07T09:51:53.467Z,945.45
2022-10-07T09:52:53.685Z,945.47
2022-10-07T09:53:53.895Z,945.52
2022-10-07T09:54:54.825Z,945.47
2022-10-07T09:55:55.658Z,945.5
2022-10-07T09:56:56.604Z,945.49
2022-10-07T09:57:56.823Z,945.49
2022-10-07T09:58:57.034Z,945.52
2022-10-07T09:59:57.961Z,945.55
2022-10-07T10:00:58.892Z,945.54
2022-10-07T10:01:59.334Z,945.54
2022-10-07T10:03:04.154Z,945.54
2022-10-07T10:04:00.280Z,945.6
2022-10-07T10:05:00.526Z,945.58
2022-10-07T10:06:01.247Z,945.6
2022-10-07T10:07:01.457Z,945.53
2022-10-07T10:08:01.698Z,945.53
2022-10-07T10:09:02.205Z,945.57
2022-10-07T10:10:03.166Z,945.58
2022-10-07T10:11:03.485Z,945.56
2022-10-07T10:12:04.440Z,945.54
2022-10-07T10:13:04.801Z,945.55
2022-10-07T10:14:05.737Z,945.51
2022-10-07T10:15:06.645Z,945.53
2022-10-07T10:16:06.973Z,945.56
2022-10-07T10:17:07.194Z,945.48
2022-10-07T10:18:08.129Z,945.5
2022-10-07T10:19:08.765Z,945.49
2022-10-07T10:20:09.713Z,945.5
2022-10-07T10:21:10.689Z,945.49
2022-10-07T10:22:11.323Z,945.51
2022-10-07T10:23:11.899Z,945.48
2022-10-07T10:24:12.132Z,945.47
2022-10-07T10:25:12.642Z,945.45
2022-10-07T10:26:13.003Z,945.49
2022-10-07T10:27:13.718Z,945.45
2022-10-07T10:28:14.025Z,945.46
2022-10-07T10:29:15.001Z,945.41
2022-10-07T10:30:15.640Z,945.39
2022-10-07T10:31:16.214Z,945.36
2022-10-07T10:32:16.857Z,945.37
2022-10-07T10:33:17.806Z,945.38
2022-10-07T10:34:18.559Z,945.37
2022-10-07T10:35:18.628Z,945.39
2022-10-07T10:36:18.969Z,945.35
2022-10-07T10:37:19.601Z,945.33
2022-10-07T10:38:20.274Z,945.37
2022-10-07T10:39:21.232Z,945.36
2022-10-07T10:40:21.455Z,945.37
2022-10-07T10:41:22.412Z,945.35
2022-10-07T10:42:23.479Z,945.37
2022-10-07T10:43:36.850Z,945.33
2022-10-07T10:44:24.360Z,945.29
2022-10-07T10:45:24.738Z,945.31
2022-10-07T10:46:25.953Z,945.22
2022-10-07T10:47:26.084Z,945.21
2022-10-07T10:48:27.007Z,945.2
2022-10-07T10:49:27.511Z,945.17
2022-10-07T10:50:27.736Z,945.2
2022-10-07T10:51:28.638Z,945.23
2022-10-07T10:52:28.873Z,945.17
2022-10-07T10:53:29.632Z,945.18
2022-10-07T10:54:29.878Z,945.09
2022-10-07T10:55:30.514Z,945.11
2022-10-07T10:56:30.868Z,945.12
2022-10-07T10:57:31.790Z,945.09
2022-10-07T10:58:32.287Z,945.03
2022-10-07T10:59:33.360Z,945.08
2022-10-07T11:00:33.578Z,945.11
2022-10-07T11:01:34.175Z,945.08
2022-10-07T11:02:34.514Z,945.12
2022-10-07T11:03:35.299Z,945.1
2022-10-07T11:04:35.889Z,945.05
2022-10-07T11:05:36.123Z,945.01
2022-10-07T11:06:36.734Z,945
2022-10-07T11:07:37.372Z,945.03
2022-10-07T11:08:38.506Z,944.98
2022-10-07T11:09:37.950Z,945.01
2022-10-07T11:10:38.173Z,945.01
2022-10-07T11:11:39.114Z,944.98
2022-10-07T11:12:39.378Z,944.97
2022-10-07T11:13:40.761Z,944.95
2022-10-07T11:14:40.761Z,944.97
2022-10-07T11:15:40.940Z,944.96
2022-10-07T11:16:41.328Z,944.98
2022-10-07T11:17:41.584Z,944.95
2022-10-07T11:18:41.921Z,944.9
2022-10-07T11:19:42.432Z,944.85
2022-10-07T11:20:44.774Z,944.87
2022-10-07T11:21:43.190Z,944.82
2022-10-07T11:22:43.729Z,944.81
2022-10-07T11:23:44.547Z,944.86
2022-10-07T11:24:45.487Z,944.8
2022-10-07T11:25:45.684Z,944.76
2022-10-07T11:26:45.963Z,944.71
2022-10-07T11:27:46.630Z,944.7
2022-10-07T11:28:47.713Z,944.68
2022-10-07T11:29:48.342Z,944.73
2022-10-07T11:30:48.547Z,944.68
2022-10-07T11:31:49.069Z,944.74
2022-10-07T11:32:49.264Z,944.67
2022-10-07T11:33:49.475Z,944.67
2022-10-07T11:34:53.710Z,944.64
2022-10-07T11:35:50.640Z,944.66
2022-10-07T11:36:51.645Z,944.64
2022-10-07T11:37:51.874Z,944.63
2022-10-07T11:38:52.815Z,944.65
2022-10-07T11:39:53.751Z,944.6
2022-10-07T11:40:53.953Z,944.59
2022-10-07T11:41:54.184Z,944.58
2022-10-07T11:42:54.389Z,944.57
2022-10-07T11:43:55.017Z,944.57
2022-10-07T11:44:55.924Z,944.55
2022-10-07T11:45:56.826Z,944.56
2022-10-07T11:46:57.509Z,944.52
2022-10-07T11:47:58.231Z,944.49
2022-10-07T11:48:58.460Z,944.44
2022-10-07T11:49:58.676Z,944.4
2022-10-07T11:50:59.595Z,944.39
2022-10-07T11:52:00.519Z,944.39
2022-10-07T11:53:01.466Z,944.34
2022-10-07T11:54:02.386Z,944.35
2022-10-07T11:55:03.315Z,944.35
2022-10-07T11:56:03.946Z,944.36
2022-10-07T11:57:04.987Z,944.3
2022-10-07T11:58:05.892Z,944.35
2022-10-07T11:59:06.092Z,944.34
2022-10-07T12:00:07.006Z,944.33
2022-10-07T12:01:07.932Z,944.31
2022-10-07T12:02:08.949Z,944.3
2022-10-07T12:03:09.509Z,944.3
2022-10-07T12:04:10.109Z,944.31
2022-10-07T12:05:10.280Z,944.24
2022-10-07T12:06:10.951Z,944.27
2022-10-07T12:07:11.265Z,944.21
2022-10-07T12:08:11.467Z,944.21
2022-10-07T12:09:12.381Z,944.19
2022-10-07T12:10:13.315Z,944.2
2022-10-07T12:11:14.020Z,944.19
2022-10-07T12:12:14.350Z,944.18
2022-10-07T12:13:14.553Z,944.18
2022-10-07T12:14:15.486Z,944.14
2022-10-07T12:15:16.540Z,944.13
2022-10-07T12:16:17.227Z,944.11
2022-10-07T12:17:17.946Z,944.11
2022-10-07T12:18:18.144Z,944.08
2022-10-07T12:19:23.215Z,944.15
2022-10-07T12:20:19.170Z,944.07
2022-10-07T12:21:20.101Z,944.06
2022-10-07T12:22:20.777Z,944.07
2022-10-07T12:23:21.299Z,944
2022-10-07T12:24:21.504Z,943.99
2022-10-07T12:25:21.834Z,943.96
2022-10-07T12:26:22.545Z,943.99
2022-10-07T12:27:23.440Z,943.95
2022-10-07T12:28:24.399Z,943.95
2022-10-07T12:29:24.926Z,943.92
2022-10-07T12:30:25.137Z,943.94
2022-10-07T12:31:26.128Z,943.89
2022-10-07T12:32:26.527Z,943.92
2022-10-07T12:33:27.269Z,943.9
2022-10-07T12:34:27.499Z,943.9
2022-10-07T12:35:28.427Z,943.88
2022-10-07T12:36:28.786Z,943.86
2022-10-07T12:37:29.097Z,943.84
2022-10-07T12:38:29.358Z,943.82
2022-10-07T12:39:29.611Z,943.79